createdAt,value
2019-04-27T00:01:14.645Z,18.50
2019-04-27T00:04:11.766Z,17.70
2019-04-27T00:06:46.445Z,17.47
2019-04-27T00:09:28.956Z,18.10
2019-04-27T00:12:16.467Z,17.63
2019-04-27T00:14:48.328Z,18.63
2019-04-27T00:17:45.879Z,17.17
2019-04-27T00:20:30.896Z,23.17
2019-04-27T00:23:08.037Z,18.87
2019-04-27T00:25:45.314Z,18.97
2019-04-27T00:28:17.601Z,18.40
2019-04-27T00:30:48.657Z,16.00
2019-04-27T00:33:19.225Z,18.07
2019-04-27T00:36:03.035Z,17.63
2019-04-27T00:38:53.465Z,18.53
2019-04-27T00:41:27.749Z,17.20
2019-04-27T00:43:58.867Z,18.87
2019-04-27T00:46:30.589Z,18.57
2019-04-27T00:49:03.702Z,16.33
2019-04-27T00:51:35.682Z,17.93
2019-04-27T00:54:06.213Z,17.43
2019-04-27T00:56:59.052Z,17.67
2019-04-27T00:59:47.363Z,22.83
2019-04-27T01:02:26.122Z,17.80
2019-04-27T01:04:57.922Z,17.43
2019-04-27T01:07:31.115Z,18.90
2019-04-27T01:10:06.124Z,19.07
2019-04-27T01:12:47.806Z,18.40
2019-04-27T01:15:21.706Z,21.50
2019-04-27T01:18:07.049Z,17.70
2019-04-27T01:20:28.397Z,18.93
2019-04-27T01:23:00.469Z,16.10
2019-04-27T01:26:02.235Z,21.77
2019-04-27T01:28:38.869Z,20.63
2019-04-27T01:31:19.310Z,16.70
2019-04-27T01:33:49.881Z,15.13
2019-04-27T01:36:25.910Z,18.50
2019-04-27T01:38:56.289Z,22.30
2019-04-27T01:41:29.390Z,20.97
2019-04-27T01:44:00.158Z,19.90
2019-04-27T01:46:36.503Z,25.47
2019-04-27T01:49:10.097Z,20.70
2019-04-27T01:51:40.702Z,19.07
2019-04-27T01:54:13.366Z,18.73
2019-04-27T01:56:44.221Z,19.17
2019-04-27T01:59:24.133Z,18.27
2019-04-27T02:02:21.333Z,18.70
2019-04-27T02:05:10.827Z,15.53
2019-04-27T02:07:42.558Z,19.07
2019-04-27T02:10:19.012Z,18.17
2019-04-27T02:12:50.373Z,18.10
2019-04-27T02:15:21.518Z,19.47
2019-04-27T02:17:55.682Z,18.57
2019-04-27T02:20:28.262Z,19.37
2019-04-27T02:22:59.867Z,20.53
2019-04-27T02:25:32.725Z,16.47
2019-04-27T02:28:13.057Z,20.40
2019-04-27T02:31:19.313Z,17.33
2019-04-27T02:34:10.362Z,18.00
2019-04-27T02:36:44.088Z,17.23
2019-04-27T02:39:15.542Z,19.63
2019-04-27T02:41:49.859Z,21.17
2019-04-27T02:44:40.476Z,21.00
2019-04-27T02:47:14.181Z,21.20
2019-04-27T02:49:50.781Z,20.77
2019-04-27T02:52:46.241Z,22.57
2019-04-27T02:55:19.747Z,21.20
2019-04-27T02:57:53.446Z,20.37
2019-04-27T03:00:24.151Z,18.93
2019-04-27T03:02:59.767Z,18.33
2019-04-27T03:05:34.718Z,18.13
2019-04-27T03:08:11.243Z,18.60
2019-04-27T03:10:41.613Z,21.80
2019-04-27T03:13:23.673Z,20.80
2019-04-27T03:16:11.197Z,22.13
2019-04-27T03:19:18.180Z,23.27
2019-04-27T03:22:01.892Z,16.57
2019-04-27T03:24:54.262Z,18.63
2019-04-27T03:27:26.218Z,20.67
2019-04-27T03:29:59.721Z,22.57
2019-04-27T03:32:34.153Z,23.17
2019-04-27T03:35:05.585Z,20.97
2019-04-27T03:37:37.207Z,17.63
2019-04-27T03:40:11.884Z,19.67
2019-04-27T03:42:44.137Z,18.40
2019-04-27T03:45:19.978Z,20.67
2019-04-27T03:47:53.031Z,18.30
2019-04-27T03:50:34.719Z,19.87
2019-04-27T03:53:30.606Z,20.13
2019-04-27T03:56:19.897Z,22.93
2019-04-27T03:58:55.859Z,20.73
2019-04-27T04:01:30.207Z,20.63
2019-04-27T04:04:02.068Z,20.97
2019-04-27T04:06:35.443Z,17.93
2019-04-27T04:09:10.111Z,18.10
2019-04-27T04:11:53.810Z,20.03
2019-04-27T04:14:26.130Z,17.50
2019-04-27T04:17:02.815Z,21.70
2019-04-27T04:19:48.028Z,22.33
2019-04-27T04:22:10.255Z,18.87
2019-04-27T04:24:40.839Z,18.60
2019-04-27T04:27:11.155Z,19.60
2019-04-27T04:29:43.740Z,21.57
2019-04-27T04:32:19.161Z,18.20
2019-04-27T04:34:51.563Z,19.97
2019-04-27T04:37:21.863Z,20.60
2019-04-27T04:39:53.695Z,20.60
2019-04-27T04:42:32.161Z,20.73
2019-04-27T04:45:22.318Z,20.20
2019-04-27T04:48:15.156Z,21.27
2019-04-27T04:50:46.353Z,20.00
2019-04-27T04:53:20.169Z,22.03
2019-04-27T04:55:53.914Z,22.77
2019-04-27T04:58:29.253Z,20.10
2019-04-27T05:01:01.836Z,18.27
2019-04-27T05:03:35.599Z,25.87
2019-04-27T05:06:06.415Z,23.23
2019-04-27T05:08:42.443Z,19.93
2019-04-27T05:11:19.621Z,18.00
2019-04-27T05:13:52.438Z,21.07
2019-04-27T05:16:26.349Z,20.43
2019-04-27T05:18:59.260Z,17.30
2019-04-27T05:21:35.271Z,20.97
2019-04-27T05:24:06.693Z,20.50
2019-04-27T05:26:40.760Z,16.77
2019-04-27T05:29:12.553Z,17.23
2019-04-27T05:31:43.893Z,19.80
2019-04-27T05:34:15.109Z,20.33
2019-04-27T05:36:48.507Z,19.23
2019-04-27T05:39:25.138Z,19.60
2019-04-27T05:41:59.754Z,18.77
2019-04-27T05:45:00.670Z,17.30
2019-04-27T05:47:51.945Z,23.20
2019-04-27T05:50:36.190Z,17.83
2019-04-27T05:53:01.926Z,22.37
2019-04-27T05:55:35.409Z,19.70
2019-04-27T05:58:12.035Z,19.83
2019-04-27T06:00:43.520Z,16.87
2019-04-27T06:03:15.211Z,18.67
2019-04-27T06:05:50.104Z,21.77
2019-04-27T06:08:21.217Z,22.90
2019-04-27T06:10:52.727Z,20.87
2019-04-27T06:13:30.795Z,19.77
2019-04-27T06:16:03.209Z,20.27
2019-04-27T06:18:35.890Z,17.67
2019-04-27T06:21:06.275Z,19.97
2019-04-27T06:23:39.729Z,19.30
2019-04-27T06:26:11.817Z,20.67
2019-04-27T06:28:48.335Z,17.03
2019-04-27T06:31:19.601Z,17.80
2019-04-27T06:33:51.666Z,14.53
2019-04-27T06:36:26.594Z,16.93
2019-04-27T06:38:59.556Z,16.27
2019-04-27T06:41:29.862Z,13.37
2019-04-27T06:44:21.731Z,16.90
2019-04-27T06:46:52.039Z,14.37
2019-04-27T06:49:23.405Z,14.83
2019-04-27T06:51:53.935Z,15.63
2019-04-27T06:54:24.954Z,16.80
2019-04-27T06:56:55.558Z,18.23
2019-04-27T06:59:30.444Z,15.83
2019-04-27T07:02:01.584Z,14.37
2019-04-27T07:04:33.038Z,16.10
2019-04-27T07:07:09.779Z,16.03
2019-04-27T07:09:42.279Z,17.50
2019-04-27T07:12:14.703Z,17.73
2019-04-27T07:14:54.955Z,14.53
2019-04-27T07:17:29.007Z,18.83
2019-04-27T07:20:01.395Z,17.00
2019-04-27T07:22:39.758Z,14.47
2019-04-27T07:25:13.670Z,14.80
2019-04-27T07:27:45.575Z,18.70
2019-04-27T07:30:19.097Z,16.73
2019-04-27T07:32:49.918Z,15.17
2019-04-27T07:35:21.757Z,18.67
2019-04-27T07:37:53.998Z,17.33
2019-04-27T07:40:26.171Z,18.37
2019-04-27T07:43:06.778Z,17.80
2019-04-27T07:45:39.583Z,15.50
2019-04-27T07:48:13.089Z,19.57
2019-04-27T07:50:49.123Z,16.47
2019-04-27T07:53:22.530Z,14.73
2019-04-27T07:55:56.790Z,16.47
2019-04-27T07:58:29.490Z,16.80
2019-04-27T08:00:59.889Z,19.93
2019-04-27T08:03:30.713Z,16.30
2019-04-27T08:06:02.427Z,17.20
2019-04-27T08:08:34.499Z,15.63
2019-04-27T08:11:08.857Z,13.63
2019-04-27T08:13:49.056Z,15.43
2019-04-27T08:16:23.204Z,15.03
2019-04-27T08:18:54.445Z,17.10
2019-04-27T08:21:28.956Z,13.50
2019-04-27T08:24:02.514Z,14.50
2019-04-27T08:26:47.216Z,15.37
2019-04-27T08:29:32.937Z,14.43
2019-04-27T08:32:10.195Z,14.93
2019-04-27T08:34:41.169Z,14.67
2019-04-27T08:37:11.858Z,14.60
2019-04-27T08:39:42.903Z,15.93
2019-04-27T08:42:17.151Z,15.70
2019-04-27T08:44:49.678Z,17.40
2019-04-27T08:47:26.219Z,16.03
2019-04-27T08:49:59.050Z,15.03
2019-04-27T08:52:36.895Z,16.33
2019-04-27T08:55:11.627Z,17.27
2019-04-27T08:57:42.396Z,14.33
2019-04-27T09:00:15.670Z,18.40
2019-04-27T09:02:50.216Z,16.03
2019-04-27T09:05:26.383Z,17.60
2019-04-27T09:08:29.144Z,13.63
2019-04-27T09:11:16.308Z,14.93
2019-04-27T09:13:53.497Z,17.47
2019-04-27T09:16:39.682Z,18.37
2019-04-27T09:19:29.972Z,18.27
2019-04-27T09:22:13.620Z,17.87
2019-04-27T09:24:43.118Z,16.67
2019-04-27T09:27:17.968Z,16.07
2019-04-27T09:29:51.189Z,17.57
2019-04-27T09:32:24.793Z,14.20
2019-04-27T09:34:59.082Z,15.00
2019-04-27T09:37:32.756Z,12.67
2019-04-27T09:40:08.076Z,15.03
2019-04-27T09:42:47.773Z,16.60
2019-04-27T09:45:18.638Z,16.47
2019-04-27T09:47:52.257Z,16.23
2019-04-27T09:50:28.254Z,14.40
2019-04-27T09:52:58.710Z,18.43
2019-04-27T09:55:29.397Z,16.83
2019-04-27T09:58:05.749Z,19.83
2019-04-27T10:00:37.074Z,17.80
2019-04-27T10:03:10.682Z,20.63
2019-04-27T10:05:43.157Z,15.97
2019-04-27T10:08:17.059Z,17.40
2019-04-27T10:10:53.263Z,15.43
2019-04-27T10:13:27.599Z,16.93
2019-04-27T10:16:01.938Z,15.20
2019-04-27T10:18:36.780Z,18.17
2019-04-27T10:21:08.412Z,16.67
2019-04-27T10:23:40.346Z,16.63
2019-04-27T10:26:13.578Z,15.10
2019-04-27T10:28:45.823Z,16.37
2019-04-27T10:31:16.773Z,12.90
2019-04-27T10:33:47.709Z,16.27
2019-04-27T10:36:37.448Z,16.40
2019-04-27T10:39:13.007Z,17.93
2019-04-27T10:41:47.221Z,13.77
2019-04-27T10:44:18.173Z,14.07
2019-04-27T10:46:50.608Z,17.87
2019-04-27T10:49:24.106Z,16.50
2019-04-27T10:51:55.775Z,15.23
2019-04-27T10:54:27.154Z,15.63
2019-04-27T10:56:59.294Z,16.63
2019-04-27T10:59:32.480Z,17.47
2019-04-27T11:02:06.260Z,16.53
2019-04-27T11:04:53.571Z,14.73
2019-04-27T11:07:31.894Z,16.70
2019-04-27T11:10:09.850Z,12.30
2019-04-27T11:12:41.333Z,16.77
2019-04-27T11:15:13.942Z,13.67
2019-04-27T11:17:47.658Z,12.33
2019-04-27T11:20:19.348Z,15.43
2019-04-27T11:23:06.159Z,15.10
2019-04-27T11:25:26.402Z,14.43
2019-04-27T11:27:57.879Z,13.37
2019-04-27T11:30:37.735Z,15.73
2019-04-27T11:33:10.395Z,13.70
2019-04-27T11:35:54.049Z,12.83
2019-04-27T11:38:26.642Z,12.97
2019-04-27T11:40:59.306Z,14.00
2019-04-27T11:43:29.734Z,14.40
2019-04-27T11:46:03.142Z,13.27
2019-04-27T11:48:38.635Z,14.90
2019-04-27T11:51:11.022Z,15.20
2019-04-27T11:53:47.765Z,13.80
2019-04-27T11:56:20.022Z,13.90
2019-04-27T11:58:50.513Z,13.57
2019-04-27T12:01:23.973Z,13.47
2019-04-27T12:03:57.474Z,10.93
2019-04-27T12:06:31.575Z,11.83
2019-04-27T12:09:07.885Z,12.23
2019-04-27T12:11:44.494Z,12.40
2019-04-27T12:14:19.652Z,10.83
2019-04-27T12:16:51.867Z,12.07
2019-04-27T12:19:23.610Z,14.77
2019-04-27T12:21:57.290Z,14.67
2019-04-27T12:24:29.070Z,13.27
2019-04-27T12:27:26.741Z,13.93
2019-04-27T12:30:18.090Z,19.43
2019-04-27T12:32:49.220Z,18.30
2019-04-27T12:35:20.170Z,15.93
2019-04-27T12:37:50.620Z,19.30
2019-04-27T12:40:21.531Z,17.23
2019-04-27T12:42:51.860Z,18.50
2019-04-27T12:45:24.535Z,19.13
2019-04-27T12:47:56.595Z,19.17
2019-04-27T12:50:28.044Z,19.30
2019-04-27T12:53:01.821Z,17.83
2019-04-27T12:56:01.182Z,19.93
2019-04-27T12:58:39.261Z,20.30
2019-04-27T13:01:11.671Z,20.77
2019-04-27T13:03:42.041Z,18.00
2019-04-27T13:06:12.617Z,19.00
2019-04-27T13:08:43.001Z,16.23
2019-04-27T13:11:13.653Z,15.90
2019-04-27T13:13:44.322Z,15.67
2019-04-27T13:16:16.649Z,19.40
2019-04-27T13:18:50.782Z,17.77
2019-04-27T13:21:26.147Z,19.53
2019-04-27T13:24:04.109Z,13.40
2019-04-27T13:26:33.290Z,18.30
2019-04-27T13:29:10.177Z,14.90
2019-04-27T13:31:41.233Z,19.10
2019-04-27T13:34:18.902Z,18.80
2019-04-27T13:36:48.086Z,14.23
2019-04-27T13:39:21.382Z,12.47
2019-04-27T13:41:56.313Z,11.43
2019-04-27T13:44:27.738Z,15.97
2019-04-27T13:47:13.824Z,12.97
2019-04-27T13:49:56.215Z,15.17
2019-04-27T13:52:30.071Z,13.23
2019-04-27T13:55:01.459Z,13.07
2019-04-27T13:57:32.921Z,13.13
2019-04-27T14:00:07.395Z,12.07
2019-04-27T14:02:44.149Z,24.73
2019-04-27T14:05:14.947Z,23.40
2019-04-27T14:07:49.429Z,19.57
2019-04-27T14:10:22.555Z,19.40
2019-04-27T14:12:54.601Z,23.63
2019-04-27T14:15:30.594Z,16.33
2019-04-27T14:18:08.208Z,20.23
2019-04-27T14:20:39.318Z,17.63
2019-04-27T14:23:19.753Z,20.13
2019-04-27T14:25:53.691Z,17.90
2019-04-27T14:28:24.082Z,16.37
2019-04-27T14:30:59.059Z,19.03
2019-04-27T14:33:35.797Z,13.87
2019-04-27T14:36:09.532Z,17.17
2019-04-27T14:38:39.918Z,15.77
2019-04-27T14:41:13.974Z,11.43
2019-04-27T14:43:44.611Z,13.47
2019-04-27T14:46:20.253Z,13.13
2019-04-27T14:48:54.457Z,11.43
2019-04-27T14:51:27.750Z,11.87
2019-04-27T14:53:59.271Z,12.57
2019-04-27T14:56:30.140Z,10.03
2019-04-27T14:59:05.792Z,9.87
2019-04-27T15:01:40.329Z,11.83
2019-04-27T15:04:11.219Z,13.27
2019-04-27T15:06:43.519Z,11.13
2019-04-27T15:09:21.137Z,11.43
2019-04-27T15:11:56.462Z,10.93
2019-04-27T15:14:34.874Z,10.93
2019-04-27T15:17:10.418Z,11.00
2019-04-27T15:19:48.500Z,12.23
2019-04-27T15:22:25.198Z,10.60
2019-04-27T15:25:09.189Z,12.20
2019-04-27T15:27:37.755Z,12.13
2019-04-27T15:30:14.396Z,10.83
2019-04-27T15:33:22.713Z,8.87
2019-04-27T15:36:00.476Z,9.17
2019-04-27T15:38:39.002Z,11.33
2019-04-27T15:41:24.332Z,9.57
2019-04-27T15:43:55.042Z,8.53
2019-04-27T15:46:33.560Z,10.90
2019-04-27T15:49:03.178Z,11.77
2019-04-27T15:51:38.716Z,9.93
2019-04-27T15:54:09.054Z,13.17
2019-04-27T15:56:41.298Z,9.67
2019-04-27T15:59:14.617Z,8.87
2019-04-27T16:01:49.177Z,11.27
2019-04-27T16:04:22.185Z,8.10
2019-04-27T16:06:54.483Z,10.27
2019-04-27T16:09:28.375Z,11.20
2019-04-27T16:12:09.934Z,8.77
2019-04-27T16:14:36.499Z,8.43
2019-04-27T16:17:11.491Z,7.80
2019-04-27T16:19:48.877Z,9.50
2019-04-27T16:22:22.688Z,8.77
2019-04-27T16:24:53.475Z,10.90
2019-04-27T16:27:31.421Z,8.20
2019-04-27T16:30:09.866Z,9.57
2019-04-27T16:32:35.718Z,9.10
2019-04-27T16:35:09.891Z,9.97
2019-04-27T16:37:58.074Z,8.37
2019-04-27T16:40:30.531Z,8.03
2019-04-27T16:43:03.437Z,8.13
2019-04-27T16:45:38.926Z,10.20
2019-04-27T16:48:10.245Z,9.27
2019-04-27T16:50:44.963Z,10.50
2019-04-27T16:53:20.249Z,8.23
2019-04-27T16:56:14.500Z,9.20
2019-04-27T16:58:39.845Z,10.80
2019-04-27T17:01:30.866Z,8.27
2019-04-27T17:04:06.396Z,10.53
2019-04-27T17:06:40.781Z,10.27
2019-04-27T17:09:15.408Z,9.03
2019-04-27T17:11:50.118Z,9.20
2019-04-27T17:14:36.712Z,8.77
2019-04-27T17:17:23.908Z,8.23
2019-04-27T17:20:00.223Z,7.47
2019-04-27T17:22:31.690Z,7.23
2019-04-27T17:25:05.057Z,8.80
2019-04-27T17:27:44.181Z,9.37
2019-04-27T17:30:18.873Z,8.70
2019-04-27T17:33:15.629Z,8.73
2019-04-27T17:35:45.641Z,9.77
2019-04-27T17:38:20.230Z,7.93
2019-04-27T17:40:54.229Z,9.83
2019-04-27T17:43:25.042Z,7.93
2019-04-27T17:45:55.425Z,8.70
2019-04-27T17:48:31.581Z,7.87
2019-04-27T17:51:08.897Z,8.23
2019-04-27T17:53:42.593Z,11.03
2019-04-27T17:56:14.392Z,11.00
2019-04-27T17:58:52.355Z,9.67
2019-04-27T18:01:26.575Z,8.13
2019-04-27T18:04:00.075Z,8.13
2019-04-27T18:06:31.614Z,9.17
2019-04-27T18:09:04.045Z,11.17
2019-04-27T18:11:37.301Z,7.37
2019-04-27T18:14:14.773Z,10.00
2019-04-27T18:16:48.060Z,9.20
2019-04-27T18:19:36.385Z,8.87
2019-04-27T18:22:11.521Z,8.03
2019-04-27T18:24:49.671Z,9.40
2019-04-27T18:27:51.567Z,7.80
2019-04-27T18:30:38.110Z,13.87
2019-04-27T18:33:09.535Z,10.53
2019-04-27T18:35:44.031Z,10.77
2019-04-27T18:38:14.350Z,10.67
2019-04-27T18:40:50.950Z,8.97
2019-04-27T18:43:28.619Z,8.60
2019-04-27T18:46:03.191Z,9.77
2019-04-27T18:48:44.757Z,12.93
2019-04-27T18:51:32.203Z,8.93
2019-04-27T18:54:05.521Z,9.87
2019-04-27T18:56:41.588Z,10.30
2019-04-27T18:59:10.942Z,8.23
2019-04-27T19:01:46.332Z,8.67
2019-04-27T19:04:16.786Z,11.27
2019-04-27T19:06:48.159Z,9.13
2019-04-27T19:09:23.723Z,11.17
2019-04-27T19:11:56.728Z,9.77
2019-04-27T19:14:28.916Z,10.67
2019-04-27T19:17:04.158Z,9.90
2019-04-27T19:19:34.882Z,9.43
2019-04-27T19:22:05.870Z,10.67
2019-04-27T19:24:37.632Z,11.23
2019-04-27T19:27:31.729Z,11.40
2019-04-27T19:30:21.170Z,10.97
2019-04-27T19:32:56.018Z,12.43
2019-04-27T19:35:29.069Z,12.07
2019-04-27T19:38:05.074Z,11.63
2019-04-27T19:40:40.584Z,12.33
2019-04-27T19:43:12.681Z,12.43
2019-04-27T19:45:48.271Z,13.70
2019-04-27T19:48:20.076Z,15.40
2019-04-27T19:50:50.802Z,13.77
2019-04-27T19:53:22.933Z,13.43
2019-04-27T19:56:02.431Z,9.50
2019-04-27T19:58:41.244Z,10.33
2019-04-27T20:01:18.579Z,10.17
2019-04-27T20:04:05.801Z,11.87
2019-04-27T20:06:45.543Z,11.60
2019-04-27T20:09:27.990Z,10.10
2019-04-27T20:12:02.895Z,14.03
2019-04-27T20:14:53.709Z,9.77
2019-04-27T20:17:24.993Z,11.93
2019-04-27T20:19:58.023Z,10.67
2019-04-27T20:22:29.829Z,10.47
2019-04-27T20:25:05.357Z,10.40
2019-04-27T20:27:46.075Z,12.07
2019-04-27T20:30:12.039Z,9.60
2019-04-27T20:32:44.810Z,12.40
2019-04-27T20:35:18.448Z,11.17
2019-04-27T20:37:53.149Z,8.93
2019-04-27T20:40:32.702Z,11.10
2019-04-27T20:43:08.038Z,10.03
2019-04-27T20:45:43.134Z,8.17
2019-04-27T20:48:17.632Z,8.50
2019-04-27T20:50:48.154Z,9.73
2019-04-27T20:53:22.783Z,12.47
2019-04-27T20:55:56.163Z,9.53
2019-04-27T20:58:27.222Z,8.43
2019-04-27T21:01:05.599Z,8.70
2019-04-27T21:03:44.728Z,9.87
2019-04-27T21:06:23.250Z,10.77
2019-04-27T21:08:57.897Z,9.53
2019-04-27T21:11:45.080Z,8.53
2019-04-27T21:14:16.289Z,9.57
2019-04-27T21:16:51.546Z,9.07
2019-04-27T21:19:23.494Z,7.90
2019-04-27T21:21:57.434Z,8.07
2019-04-27T21:24:32.301Z,9.17
2019-04-27T21:27:05.438Z,8.47
2019-04-27T21:29:44.333Z,9.53
2019-04-27T21:32:18.040Z,7.33
2019-04-27T21:34:49.070Z,9.40
2019-04-27T21:37:19.701Z,10.00
2019-04-27T21:39:53.345Z,9.00
2019-04-27T21:42:23.814Z,10.57
2019-04-27T21:44:58.567Z,8.07
2019-04-27T21:47:32.259Z,8.17
2019-04-27T21:50:05.759Z,7.50
2019-04-27T21:52:38.319Z,8.80
2019-04-27T21:55:11.488Z,7.60
2019-04-27T21:57:44.205Z,8.03
2019-04-27T22:00:37.673Z,7.80
2019-04-27T22:03:11.758Z,7.37
2019-04-27T22:05:43.337Z,8.00
2019-04-27T22:08:16.033Z,9.07
2019-04-27T22:10:53.863Z,7.93
2019-04-27T22:13:28.653Z,8.33
2019-04-27T22:15:59.231Z,9.00
2019-04-27T22:18:31.452Z,7.73
2019-04-27T22:21:02.630Z,9.53
2019-04-27T22:23:44.099Z,7.33
2019-04-27T22:26:15.674Z,7.67
2019-04-27T22:28:52.098Z,9.37
2019-04-27T22:31:24.292Z,7.77
2019-04-27T22:33:55.412Z,8.13
2019-04-27T22:36:29.625Z,9.17
2019-04-27T22:39:11.735Z,9.70
2019-04-27T22:42:09.558Z,7.60
2019-04-27T22:44:48.806Z,7.67
2019-04-27T22:47:23.676Z,8.07
2019-04-27T22:49:56.051Z,7.43
2019-04-27T22:52:26.338Z,7.17
2019-04-27T22:55:01.668Z,6.70
2019-04-27T22:57:42.249Z,9.13
2019-04-27T23:00:31.157Z,8.67
2019-04-27T23:03:04.911Z,8.27
2019-04-27T23:05:35.501Z,7.50
2019-04-27T23:08:08.835Z,7.43
2019-04-27T23:10:43.273Z,8.07
2019-04-27T23:13:19.066Z,7.83
2019-04-27T23:15:52.317Z,9.80
2019-04-27T23:18:22.707Z,9.53
2019-04-27T23:20:57.090Z,8.07
2019-04-27T23:23:28.206Z,8.17
2019-04-27T23:26:01.775Z,7.97
2019-04-27T23:28:33.994Z,8.07
2019-04-27T23:31:20.953Z,7.47
2019-04-27T23:33:53.779Z,7.87
2019-04-27T23:36:24.162Z,8.00
2019-04-27T23:38:57.929Z,8.63
2019-04-27T23:41:30.922Z,7.57
2019-04-27T23:44:05.793Z,7.23
2019-04-27T23:46:40.274Z,7.63
2019-04-27T23:49:14.457Z,7.83
2019-04-27T23:51:56.033Z,8.40
2019-04-27T23:54:26.893Z,8.33
2019-04-27T23:56:57.302Z,8.57
2019-04-27T23:59:28.155Z,7.97
